Time;durP1;ratioP1;P1;durP2;ratioP2;P2;SDS_P1;SDS_P2;PMS_P1;PMS_P2;Temp;Humidity;BMP_temperature;BMP_pressure;BME280_temperature;BME280_humidity;BME280_pressure;Samples;Min_cycle;Max_cycle;Signal;HPM_P1;HPM_P2
2023/06/22 00:00:00;;;;;;;8.05;3.40;;;;;;;19.43;60.40;100388.19;5019418;28;20053;-48
2023/06/22 00:02:26;;;;;;;6.75;3.60;;;;;;;19.40;61.23;100388.28;5022359;28;20131;-49
2023/06/22 00:04:53;;;;;;;9.57;5.05;;;;;;;19.37;60.73;100393.66;5018953;28;20045;-50
2023/06/22 00:07:20;;;;;;;7.97;4.22;;;;;;;19.34;61.06;100388.50;5023786;28;20041;-49
2023/06/22 00:09:46;;;;;;;8.73;4.70;;;;;;;19.31;61.14;100383.34;5019671;28;20049;-48
2023/06/22 00:12:13;;;;;;;8.93;4.00;;;;;;;19.26;61.32;100381.72;5016934;28;20052;-48
2023/06/22 00:14:39;;;;;;;7.00;4.00;;;;;;;19.24;61.17;100385.31;5020599;28;20049;-48
2023/06/22 00:17:06;;;;;;;6.78;3.58;;;;;;;19.19;60.93;100380.25;5018031;28;20057;-51
2023/06/22 00:19:35;;;;;;;7.40;4.18;;;;;;;19.14;60.91;100379.53;5016089;28;20050;-52
2023/06/22 00:22:03;;;;;;;8.70;4.25;;;;;;;19.12;61.09;100386.59;5016060;28;20133;-50
2023/06/22 00:24:31;;;;;;;6.93;3.40;;;;;;;19.09;60.97;100389.31;5019107;28;20046;-49
2023/06/22 00:26:59;;;;;;;9.00;4.30;;;;;;;19.04;61.59;100393.84;5021633;28;20068;-47
2023/06/22 00:29:28;;;;;;;9.40;4.53;;;;;;;19.01;61.57;100397.41;5023082;28;20782;-49
2023/06/22 00:31:56;;;;;;;8.23;4.28;;;;;;;18.98;61.78;100387.88;5021159;28;20050;-48
2023/06/22 00:34:24;;;;;;;8.10;3.88;;;;;;;18.96;61.53;100389.69;5017246;28;20041;-49
2023/06/22 00:36:52;;;;;;;8.73;4.32;;;;;;;18.95;61.50;100390.59;5007951;28;20041;-51
2023/06/22 00:39:20;;;;;;;7.05;4.05;;;;;;;18.94;61.60;100383.63;5006311;28;20054;-48
2023/06/22 00:41:47;;;;;;;8.40;4.38;;;;;;;18.94;61.82;100386.25;5010413;28;20053;-49
2023/06/22 00:44:15;;;;;;;8.43;3.80;;;;;;;18.94;62.19;100391.50;5014494;28;20046;-47
2023/06/22 00:46:43;;;;;;;8.55;3.67;;;;;;;18.92;62.07;100385.47;5009775;28;20077;-48
2023/06/22 00:49:12;;;;;;;9.32;4.20;;;;;;;18.92;61.70;100403.84;5008050;28;20497;-47
2023/06/22 00:51:47;;;;;;;10.27;4.65;;;;;;;18.91;62.00;100402.09;5001693;28;20069;-47
2023/06/22 00:54:16;;;;;;;10.77;4.40;;;;;;;18.87;62.24;100398.72;5007749;28;20072;-47
2023/06/22 00:56:45;;;;;;;7.63;4.22;;;;;;;18.86;62.49;100398.78;5013301;28;20049;-50
2023/06/22 00:59:17;;;;;;;9.15;4.80;;;;;;;18.81;62.90;100400.69;5010380;28;20121;-47
2023/06/22 01:01:44;;;;;;;11.10;4.57;;;;;;;18.80;61.88;100398.94;5009385;28;20046;-47
2023/06/22 01:04:11;;;;;;;10.85;4.70;;;;;;;18.80;62.30;100405.06;5010493;28;20046;-49
2023/06/22 01:06:51;;;;;;;9.52;4.40;;;;;;;18.80;62.12;100404.19;5007713;28;20069;-49
2023/06/22 01:09:27;;;;;;;9.77;4.45;;;;;;;18.81;62.59;100401.53;5003412;28;20053;-47
2023/06/22 01:11:57;;;;;;;;;;;;;;;18.59;62.52;100398.72;5005131;28;20049;-48
2023/06/22 01:14:36;;;;;;;8.38;3.78;;;;;;;18.73;62.52;100399.16;5005819;28;19928;-49
2023/06/22 01:17:08;;;;;;;8.90;4.20;;;;;;;18.73;62.76;100399.16;5006061;28;20046;-52
2023/06/22 01:19:55;;;;;;;9.13;3.90;;;;;;;18.66;62.39;100402.88;5008353;28;20050;-53
2023/06/22 01:22:29;;;;;;;8.48;3.97;;;;;;;18.71;62.56;100400.97;5007586;28;20601;-47
2023/06/22 01:25:20;;;;;;;9.15;4.13;;;;;;;18.69;62.55;100408.03;5012065;28;20058;-47
2023/06/22 01:30:26;;;;;;;9.52;5.93;;;;;;;18.68;62.77;100414.16;5053924;27;20388;-47
2023/06/22 01:32:55;;;;;;;11.50;6.40;;;;;;;18.65;62.92;100427.41;5021713;28;20045;-51
2023/06/22 01:35:22;;;;;;;9.70;6.18;;;;;;;18.61;63.10;100424.00;5013526;28;20135;-49
2023/06/22 01:37:49;;;;;;;9.35;7.13;;;;;;;18.61;63.35;100425.78;5016972;28;20188;-50
2023/06/22 01:40:17;;;;;;;8.98;5.47;;;;;;;18.58;62.78;100428.50;5015991;28;20076;-49
2023/06/22 01:42:44;;;;;;;13.43;5.43;;;;;;;18.55;62.86;100424.19;5015346;28;20049;-46
2023/06/22 01:45:12;;;;;;;9.65;5.60;;;;;;;18.53;63.09;100423.38;5019225;28;20049;-47
2023/06/22 01:47:39;;;;;;;11.60;5.50;;;;;;;18.51;62.99;100427.81;5020372;28;20054;-48
2023/06/22 01:50:06;;;;;;;9.77;5.38;;;;;;;18.52;63.07;100429.53;5014772;28;20056;-51
2023/06/22 01:52:33;;;;;;;10.07;6.40;;;;;;;18.53;63.65;100425.13;5018358;28;20112;-51
2023/06/22 01:55:01;;;;;;;10.02;5.78;;;;;;;18.53;63.96;100422.50;5017992;28;20053;-50
2023/06/22 01:57:27;;;;;;;8.10;4.28;;;;;;;18.54;63.68;100429.50;5017377;28;20438;-48
2023/06/22 02:00:14;;;;;;;10.30;5.70;;;;;;;18.46;63.10;100421.84;5012919;28;20042;-49
2023/06/22 02:02:54;;;;;;;8.10;5.57;;;;;;;18.48;63.92;100425.28;5018127;28;20080;-51
2023/06/22 02:05:24;;;;;;;9.02;6.20;;;;;;;18.53;63.22;100427.75;5014316;28;20088;-49
2023/06/22 02:08:16;;;;;;;9.02;5.22;;;;;;;18.43;63.76;100417.53;5014888;28;20084;-50
2023/06/22 02:10:45;;;;;;;8.60;5.30;;;;;;;18.47;63.35;100424.41;5017205;28;20512;-50
2023/06/22 02:13:14;;;;;;;8.20;6.32;;;;;;;18.45;63.38;100426.25;5017873;28;20045;-46
2023/06/22 02:15:40;;;;;;;8.82;5.22;;;;;;;18.42;63.52;100421.09;5013985;28;20057;-48
2023/06/22 02:18:07;;;;;;;10.50;5.55;;;;;;;18.42;64.01;100420.22;5022953;28;20053;-50
2023/06/22 02:20:37;;;;;;;10.20;5.85;;;;;;;18.41;63.12;100418.50;5015772;28;20046;-48
2023/06/22 02:23:05;;;;;;;7.28;3.38;;;;;;;18.38;63.15;100422.06;5018142;28;20621;-51
2023/06/22 02:25:33;;;;;;;11.55;5.35;;;;;;;18.37;63.21;100420.34;5018812;28;20346;-49
2023/06/22 02:28:00;;;;;;;8.77;4.90;;;;;;;18.33;63.76;100421.34;5017227;28;20050;-50
2023/06/22 02:30:26;;;;;;;11.15;5.57;;;;;;;18.32;63.43;100417.00;5017006;28;20045;-48
2023/06/22 02:32:58;;;;;;;9.15;5.50;;;;;;;18.31;64.02;100417.91;5017231;28;20544;-51
2023/06/22 02:35:31;;;;;;;9.43;5.25;;;;;;;18.27;64.30;100422.38;5014376;28;20056;-49
2023/06/22 02:38:00;;;;;;;11.70;6.07;;;;;;;18.22;64.03;100425.16;5015240;28;20466;-48
2023/06/22 02:40:27;;;;;;;13.48;6.57;;;;;;;18.16;64.53;100425.31;5013817;28;20072;-50
2023/06/22 02:42:54;;;;;;;10.95;6.30;;;;;;;18.13;63.90;100430.63;5002307;28;20049;-52
2023/06/22 02:45:21;;;;;;;11.13;5.88;;;;;;;18.11;64.11;100432.47;5003875;28;20065;-47
2023/06/22 02:47:48;;;;;;;9.30;5.55;;;;;;;18.08;64.67;100422.03;5004843;28;20043;-49
2023/06/22 02:50:14;;;;;;;9.90;6.05;;;;;;;18.08;63.86;100424.63;5004469;28;20054;-46
2023/06/22 02:52:41;;;;;;;10.60;5.82;;;;;;;18.07;64.64;100428.16;4998560;28;20493;-48
2023/06/22 02:55:08;;;;;;;10.50;6.18;;;;;;;18.07;64.46;100428.16;5003806;28;20046;-47
2023/06/22 02:57:35;;;;;;;10.43;5.82;;;;;;;18.05;64.33;100428.22;5007587;28;20100;-47
2023/06/22 03:00:16;;;;;;;10.18;5.97;;;;;;;18.05;64.85;100425.59;5005524;28;20049;-47
2023/06/22 03:02:44;;;;;;;7.95;4.60;;;;;;;18.02;64.34;100416.94;5005976;28;20053;-49
2023/06/22 03:05:13;;;;;;;9.50;6.28;;;;;;;17.99;64.62;100410.91;5002068;28;20049;-48
2023/06/22 03:07:41;;;;;;;10.25;5.50;;;;;;;17.98;64.76;100418.78;5001617;28;20057;-48
2023/06/22 03:10:10;;;;;;;8.85;5.72;;;;;;;17.95;64.46;100416.25;5005106;28;20077;-49
2023/06/22 03:12:38;;;;;;;8.90;5.03;;;;;;;17.91;64.83;100420.72;5001138;28;20057;-47
2023/06/22 03:15:08;;;;;;;11.75;6.00;;;;;;;17.90;65.16;100423.38;5004252;28;20064;-47
2023/06/22 03:17:35;;;;;;;;;;;;;;;17.64;65.48;100417.94;5007948;28;20061;-49
2023/06/22 03:20:08;;;;;;;10.15;5.47;;;;;;;17.80;64.81;100418.38;5005326;28;19922;-48
2023/06/22 03:22:36;;;;;;;10.73;5.90;;;;;;;17.81;65.36;100419.25;4996632;28;20057;-48
2023/06/22 03:25:04;;;;;;;11.43;5.78;;;;;;;17.78;64.62;100420.19;5006066;28;20057;-49
2023/06/22 03:27:30;;;;;;;11.70;5.57;;;;;;;17.76;64.32;100421.16;5002855;28;20051;-48
2023/06/22 03:29:57;;;;;;;9.20;5.82;;;;;;;17.71;64.58;100414.28;5000678;28;20045;-48
2023/06/22 03:32:25;;;;;;;9.07;5.75;;;;;;;17.68;64.37;100414.34;5000411;28;20053;-49
2023/06/22 03:34:51;;;;;;;11.75;6.30;;;;;;;17.65;65.00;100413.56;5001909;28;20077;-48
2023/06/22 03:37:18;;;;;;;8.73;5.78;;;;;;;17.62;64.61;100424.97;5002292;28;20058;-46
2023/06/22 03:39:45;;;;;;;9.75;5.60;;;;;;;17.59;64.79;100419.81;5004584;28;20049;-48
2023/06/22 03:42:11;;;;;;;9.65;5.57;;;;;;;17.58;65.10;100418.09;5001021;28;20050;-48
2023/06/22 03:44:38;;;;;;;9.55;5.65;;;;;;;17.56;65.29;100419.91;5002805;28;20054;-47
2023/06/22 03:47:07;;;;;;;10.48;6.05;;;;;;;17.55;64.58;100420.78;5004419;28;20042;-53
2023/06/22 03:49:34;;;;;;;14.90;6.50;;;;;;;17.53;65.32;100420.00;4999147;28;20042;-52
2023/06/22 03:52:02;;;;;;;9.95;5.60;;;;;;;17.52;65.67;100423.50;5000736;28;20064;-47
2023/06/22 03:54:29;;;;;;;10.00;5.35;;;;;;;17.51;65.35;100427.00;4999141;28;20045;-50
2023/06/22 03:56:57;;;;;;;12.27;6.07;;;;;;;17.50;65.67;100427.91;4998934;28;20042;-47
2023/06/22 03:59:24;;;;;;;13.25;5.35;;;;;;;17.48;65.42;100422.72;5001826;28;20721;-49
2023/06/22 04:01:51;;;;;;;10.88;5.82;;;;;;;17.47;65.50;100424.47;4997921;28;20064;-48
2023/06/22 04:04:18;;;;;;;14.30;5.85;;;;;;;17.50;65.47;100425.31;4992421;28;20057;-48
2023/06/22 04:06:45;;;;;;;8.13;4.15;;;;;;;17.46;65.48;100414.03;4986761;28;20452;-48
2023/06/22 04:09:12;;;;;;;12.75;6.45;;;;;;;17.46;65.62;100420.13;4999087;28;20064;-47
2023/06/22 04:11:38;;;;;;;11.13;6.13;;;;;;;17.46;65.77;100422.75;4998629;28;20061;-48
2023/06/22 04:14:05;;;;;;;10.15;5.43;;;;;;;17.50;66.05;100420.06;4999766;28;20076;-50
2023/06/22 04:16:33;;;;;;;10.68;5.80;;;;;;;17.50;66.42;100415.69;5002620;28;20536;-49
2023/06/22 04:19:00;;;;;;;11.00;6.53;;;;;;;17.52;66.05;100413.00;5002222;28;20046;-47
2023/06/22 04:21:26;;;;;;;13.27;6.13;;;;;;;17.54;65.81;100413.84;5001891;28;20042;-47
2023/06/22 04:23:53;;;;;;;13.88;6.43;;;;;;;17.56;65.66;100419.91;5000534;28;20046;-49
2023/06/22 04:26:20;;;;;;;11.68;6.22;;;;;;;17.57;66.07;100416.41;4999830;28;20490;-47
2023/06/22 04:28:55;;;;;;;11.15;5.65;;;;;;;17.58;66.37;100418.09;4998186;28;20493;-53
2023/06/22 04:31:21;;;;;;;10.77;6.43;;;;;;;17.58;65.62;100420.72;5001549;28;20041;-51
2023/06/22 04:33:51;;;;;;;13.07;7.70;;;;;;;17.60;65.68;100416.31;4998793;28;20628;-48
2023/06/22 04:36:18;;;;;;;10.85;5.50;;;;;;;17.59;65.65;100425.06;5005505;28;20049;-48
2023/06/22 04:38:44;;;;;;;11.68;6.72;;;;;;;17.61;66.09;100418.03;5006129;28;20052;-49
2023/06/22 04:41:14;;;;;;;11.27;5.60;;;;;;;17.64;66.01;100414.47;5005567;28;20501;-48
2023/06/22 04:43:40;;;;;;;13.93;6.25;;;;;;;17.70;66.26;100423.00;5000808;28;20049;-47
2023/06/22 04:46:07;;;;;;;11.57;6.78;;;;;;;17.74;66.19;100413.31;5004013;28;20065;-46
2023/06/22 04:48:34;;;;;;;14.25;6.93;;;;;;;17.80;66.89;100421.00;4995790;28;20054;-49
2023/06/22 04:51:03;;;;;;;12.10;6.90;;;;;;;17.86;66.11;100417.34;5004941;28;20702;-47
2023/06/22 04:53:31;;;;;;;11.45;6.10;;;;;;;17.91;66.70;100423.34;4995017;28;20103;-47
2023/06/22 04:55:58;;;;;;;11.77;7.15;;;;;;;17.94;67.02;100415.38;5000165;28;20058;-48
2023/06/22 04:58:28;;;;;;;12.52;6.40;;;;;;;17.99;66.16;100429.25;4999537;28;20050;-50
2023/06/22 05:00:56;;;;;;;11.48;6.28;;;;;;;18.05;66.35;100432.59;4995430;28;20144;-46
2023/06/22 05:03:25;;;;;;;12.55;6.93;;;;;;;18.09;66.16;100424.63;5001167;28;20132;-48
2023/06/22 05:05:53;;;;;;;11.00;5.93;;;;;;;18.16;66.62;100424.44;4995584;28;20455;-49
2023/06/22 05:08:20;;;;;;;11.93;6.07;;;;;;;18.22;67.06;100422.53;4998637;28;20054;-48
2023/06/22 05:10:46;;;;;;;12.98;6.68;;;;;;;18.30;66.18;100426.69;5000948;28;20057;-50
2023/06/22 05:13:31;;;;;;;13.18;6.65;;;;;;;18.39;67.04;100431.66;4998058;28;20042;-50
2023/06/22 05:16:01;;;;;;;13.38;7.03;;;;;;;18.46;66.46;100437.56;4998623;28;20061;-49
2023/06/22 05:18:29;;;;;;;11.43;6.65;;;;;;;18.55;66.71;100441.69;5004817;28;20058;-48
2023/06/22 05:20:57;;;;;;;17.17;7.50;;;;;;;18.62;66.55;100432.75;5002877;28;20091;-48
2023/06/22 05:23:24;;;;;;;12.30;6.82;;;;;;;18.71;66.69;100434.22;5005144;28;20042;-49
2023/06/22 05:25:51;;;;;;;12.50;7.05;;;;;;;18.83;66.80;100440.84;4998239;28;20049;-47
2023/06/22 05:28:22;;;;;;;12.20;6.88;;;;;;;18.93;66.85;100439.66;5001745;28;20077;-49
2023/06/22 05:30:50;;;;;;;12.85;7.18;;;;;;;19.06;66.85;100441.88;4997018;28;20045;-50
2023/06/22 05:33:17;;;;;;;14.40;8.25;;;;;;;19.18;66.33;100444.16;5005105;28;20057;-48
2023/06/22 05:35:43;;;;;;;13.25;6.90;;;;;;;19.32;66.37;100445.47;5001933;28;20493;-48
2023/06/22 05:38:10;;;;;;;15.52;7.50;;;;;;;19.45;66.50;100438.88;5000136;28;20049;-46
2023/06/22 05:40:37;;;;;;;15.48;8.13;;;;;;;19.63;66.68;100444.44;5001984;28;20042;-48
2023/06/22 05:43:03;;;;;;;13.82;7.15;;;;;;;19.77;66.70;100447.47;5002805;28;20612;-49
2023/06/22 05:45:30;;;;;;;12.05;6.88;;;;;;;19.92;66.25;100450.44;4997565;28;20066;-51
2023/06/22 05:47:57;;;;;;;12.27;7.68;;;;;;;20.02;65.90;100454.50;5001739;28;20058;-47
2023/06/22 05:50:24;;;;;;;12.70;6.75;;;;;;;20.09;65.74;100459.53;4999212;28;20042;-47
2023/06/22 05:52:50;;;;;;;11.85;7.13;;;;;;;20.15;65.31;100454.03;4995277;28;20064;-50
2023/06/22 05:55:18;;;;;;;14.75;7.10;;;;;;;20.21;65.25;100453.84;5000487;28;20050;-48
2023/06/22 05:57:45;;;;;;;12.07;7.38;;;;;;;20.27;65.38;100453.59;4998537;28;20100;-46
2023/06/22 06:00:13;;;;;;;13.30;6.05;;;;;;;20.33;64.92;100449.03;4996139;28;20577;-52
2023/06/22 06:02:43;;;;;;;12.70;7.40;;;;;;;20.40;65.14;100454.00;4992988;28;20057;-48
2023/06/22 06:05:14;;;;;;;12.18;7.35;;;;;;;20.51;65.53;100450.97;4996205;28;20050;-49
2023/06/22 06:07:42;;;;;;;15.18;6.65;;;;;;;20.62;64.83;100447.06;4996577;28;20080;-50
2023/06/22 06:10:09;;;;;;;11.65;6.85;;;;;;;20.72;65.08;100453.69;4997347;28;20041;-53
2023/06/22 06:12:36;;;;;;;13.60;7.95;;;;;;;20.86;65.31;100450.50;4998688;28;20050;-49
2023/06/22 06:15:03;;;;;;;14.35;7.88;;;;;;;21.00;64.85;100451.75;4996023;28;20483;-49
2023/06/22 06:17:30;;;;;;;11.05;6.63;;;;;;;21.16;64.45;100457.28;4999241;28;20143;-50
2023/06/22 06:19:59;;;;;;;11.27;7.15;;;;;;;21.35;64.46;100456.53;4997754;28;20133;-48
2023/06/22 06:22:25;;;;;;;12.02;5.88;;;;;;;21.50;64.60;100461.16;4998563;28;20581;-49
2023/06/22 06:24:52;;;;;;;11.77;6.90;;;;;;;21.65;64.37;100464.06;4999568;28;20054;-50
2023/06/22 06:27:19;;;;;;;12.27;7.18;;;;;;;21.77;64.02;100460.94;5002253;28;20131;-48
2023/06/22 06:29:47;;;;;;;12.90;7.75;;;;;;;21.90;63.91;100469.16;4997543;28;20034;-50
2023/06/22 06:32:15;;;;;;;12.77;6.88;;;;;;;22.04;63.96;100470.31;5001672;28;20080;-49
2023/06/22 06:34:41;;;;;;;14.27;8.30;;;;;;;22.19;63.26;100466.16;5001552;28;20042;-49
2023/06/22 06:37:08;;;;;;;10.75;6.97;;;;;;;22.32;63.02;100463.78;5002127;28;20422;-48
2023/06/22 06:39:34;;;;;;;11.93;6.70;;;;;;;22.47;62.58;100462.25;4999300;28;20050;-50
2023/06/22 06:42:02;;;;;;;12.98;8.25;;;;;;;22.56;62.75;100472.41;4999349;28;20088;-49
2023/06/22 06:44:28;;;;;;;11.40;7.10;;;;;;;22.68;62.14;100472.75;4997376;28;20053;-49
2023/06/22 06:46:55;;;;;;;10.23;6.90;;;;;;;22.81;61.25;100473.91;4997737;28;20053;-52
2023/06/22 06:49:21;;;;;;;10.45;6.45;;;;;;;22.94;61.33;100465.41;4996077;28;20065;-49
2023/06/22 06:51:48;;;;;;;12.10;6.97;;;;;;;23.02;60.57;100476.44;4998618;28;20065;-49
2023/06/22 06:54:15;;;;;;;9.27;4.97;;;;;;;23.16;60.28;100469.63;4999477;28;20589;-49
2023/06/22 06:56:47;;;;;;;11.25;6.47;;;;;;;23.30;60.92;100477.72;4999308;28;20050;-50
2023/06/22 06:59:15;;;;;;;12.27;7.00;;;;;;;23.54;59.98;100474.81;4995781;28;20061;-48
2023/06/22 07:01:44;;;;;;;10.93;6.43;;;;;;;23.69;59.41;100472.31;4996737;28;20133;-49
2023/06/22 07:04:11;;;;;;;;;;;;;;;23.75;59.75;100472.03;4996912;28;20058;-47
2023/06/22 07:06:38;;;;;;;9.70;5.60;;;;;;;23.99;59.02;100476.97;4996238;28;20019;-53
2023/06/22 07:09:05;;;;;;;8.13;5.63;;;;;;;24.16;58.69;100476.09;5000611;28;20049;-48
2023/06/22 07:11:33;;;;;;;7.90;6.45;;;;;;;24.32;58.43;100473.47;5000063;28;20375;-50
2023/06/22 07:14:01;;;;;;;8.02;5.20;;;;;;;24.46;58.12;100467.47;4994726;28;20298;-49
2023/06/22 07:16:28;;;;;;;10.30;6.03;;;;;;;24.64;57.36;100470.88;4996686;28;20053;-52
2023/06/22 07:18:55;;;;;;;8.60;5.40;;;;;;;24.83;57.36;100471.63;4999355;28;20049;-50
2023/06/22 07:21:22;;;;;;;8.88;5.65;;;;;;;24.99;56.73;100469.00;5002488;28;20076;-50
2023/06/22 07:23:48;;;;;;;12.52;6.00;;;;;;;25.11;56.38;100473.59;5000909;28;20477;-48
2023/06/22 07:26:16;;;;;;;8.40;5.93;;;;;;;25.27;56.07;100472.72;4997235;28;20046;-49
2023/06/22 07:28:43;;;;;;;8.75;4.63;;;;;;;25.45;55.92;100480.53;5001204;28;21270;-54
2023/06/22 07:31:10;;;;;;;10.32;5.95;;;;;;;25.70;56.17;100479.94;5003478;28;20514;-50
2023/06/22 07:33:36;;;;;;;12.30;5.72;;;;;;;25.95;55.13;100483.78;5000816;28;20056;-50
2023/06/22 07:36:07;;;;;;;7.25;5.80;;;;;;;26.10;54.79;100482.00;5004771;28;20166;-51
2023/06/22 07:38:35;;;;;;;8.45;5.35;;;;;;;26.24;54.87;100475.00;5004865;28;20054;-50
2023/06/22 07:41:05;;;;;;;8.90;5.70;;;;;;;26.37;53.89;100478.59;5003283;28;20041;-52
2023/06/22 07:43:34;;;;;;;6.47;5.10;;;;;;;26.51;53.80;100479.53;5005145;28;20077;-47
2023/06/22 07:46:01;;;;;;;7.30;4.80;;;;;;;26.69;53.28;100473.03;5006911;28;20057;-47
2023/06/22 07:48:27;;;;;;;7.72;5.32;;;;;;;26.87;53.29;100464.84;5003072;28;20445;-51
2023/06/22 07:50:54;;;;;;;7.38;4.95;;;;;;;27.00;52.58;100469.38;5004739;28;20042;-50
2023/06/22 07:53:22;;;;;;;8.95;4.63;;;;;;;27.10;52.10;100470.47;5005927;28;20501;-50
2023/06/22 07:55:50;;;;;;;7.45;5.07;;;;;;;27.25;51.56;100459.78;5007013;28;20049;-50
2023/06/22 07:58:18;;;;;;;7.32;5.35;;;;;;;27.43;52.05;100466.50;5005550;28;20054;-48
2023/06/22 08:00:46;;;;;;;5.88;3.75;;;;;;;27.66;51.11;100471.28;5002750;28;20461;-47
2023/06/22 08:03:13;;;;;;;10.73;6.28;;;;;;;27.82;50.65;100461.25;5003027;28;20061;-53
2023/06/22 08:05:40;;;;;;;7.35;4.72;;;;;;;27.96;50.29;100462.09;5002581;28;20088;-50
2023/06/22 08:08:07;;;;;;;8.02;5.35;;;;;;;28.03;50.58;100462.53;5002549;28;20041;-49
2023/06/22 08:10:34;;;;;;;7.80;5.18;;;;;;;28.12;50.60;100461.00;5001670;28;20103;-51
2023/06/22 08:13:00;;;;;;;7.95;4.78;;;;;;;28.25;50.17;100471.66;4994168;28;20660;-54
2023/06/22 08:15:28;;;;;;;7.40;5.35;;;;;;;28.42;49.67;100468.69;4997496;28;20057;-51
2023/06/22 08:17:55;;;;;;;8.85;5.10;;;;;;;28.56;48.60;100469.47;5004402;28;20058;-50
2023/06/22 08:20:22;;;;;;;7.75;5.10;;;;;;;28.61;48.85;100470.03;4999593;28;20054;-49
2023/06/22 08:22:49;;;;;;;7.70;6.53;;;;;;;28.76;48.34;100477.84;4999217;28;20097;-52
2023/06/22 08:25:15;;;;;;;8.63;6.00;;;;;;;28.91;47.55;100478.53;5004411;28;20754;-53
2023/06/22 08:27:45;;;;;;;6.00;5.03;;;;;;;29.09;47.59;100484.34;4996390;28;20100;-51
2023/06/22 08:30:12;;;;;;;6.88;4.75;;;;;;;29.25;47.43;100487.56;5001234;28;20131;-52
2023/06/22 08:32:39;;;;;;;7.00;5.25;;;;;;;29.42;47.60;100472.13;5003526;28;20417;-51
2023/06/22 08:35:08;;;;;;;9.38;5.97;;;;;;;29.57;46.19;100469.25;5003512;28;20042;-50
2023/06/22 08:37:35;;;;;;;8.18;5.43;;;;;;;29.75;45.76;100467.00;4997494;28;20070;-54
2023/06/22 08:40:05;;;;;;;6.07;2.83;;;;;;;29.95;45.56;100468.09;4999660;28;20495;-51
2023/06/22 08:42:32;;;;;;;6.05;5.03;;;;;;;30.04;45.62;100466.53;5003416;28;20048;-53
2023/06/22 08:44:59;;;;;;;8.13;5.47;;;;;;;30.15;45.10;100468.34;5005293;28;20053;-49
2023/06/22 08:47:27;;;;;;;6.50;5.68;;;;;;;30.23;45.12;100459.75;4999564;28;20081;-52
2023/06/22 08:49:56;;;;;;;6.80;5.07;;;;;;;30.42;45.15;100461.78;5004416;28;20038;-53
2023/06/22 08:52:25;;;;;;;7.93;6.05;;;;;;;30.61;44.65;100462.97;5000731;28;20060;-51
2023/06/22 08:54:52;;;;;;;7.03;6.03;;;;;;;30.74;44.52;100457.50;5005308;28;20046;-51
2023/06/22 08:57:19;;;;;;;6.43;4.70;;;;;;;30.80;44.27;100458.81;5002403;28;20062;-52
2023/06/22 08:59:46;;;;;;;8.52;5.28;;;;;;;30.88;44.18;100453.69;4997535;28;20421;-53
2023/06/22 09:02:13;;;;;;;6.68;4.60;;;;;;;30.99;44.04;100461.66;5000602;28;20058;-52
2023/06/22 09:04:41;;;;;;;7.45;4.70;;;;;;;31.05;43.60;100460.28;5001388;28;20046;-52
2023/06/22 09:07:08;;;;;;;8.07;5.13;;;;;;;31.32;43.05;100463.44;5004901;28;20049;-52
2023/06/22 09:09:35;;;;;;;5.50;4.50;;;;;;;31.51;43.02;100460.94;5004269;28;20041;-51
2023/06/22 09:12:04;;;;;;;6.63;4.93;;;;;;;31.64;41.97;100470.59;5002733;28;20212;-51
2023/06/22 09:14:31;;;;;;;6.32;5.10;;;;;;;31.53;41.82;100469.69;5004202;28;20545;-49
2023/06/22 09:16:57;;;;;;;7.07;4.72;;;;;;;31.51;42.36;100471.63;5000738;28;20065;-52
2023/06/22 09:19:27;;;;;;;5.90;4.35;;;;;;;31.53;42.58;100472.38;5001554;28;20042;-55
2023/06/22 09:21:53;;;;;;;5.07;4.38;;;;;;;31.65;42.53;100478.47;5002855;28;20053;-50
2023/06/22 09:24:20;;;;;;;6.88;4.82;;;;;;;31.77;41.88;100487.28;5000127;28;20058;-54
2023/06/22 09:26:47;;;;;;;8.60;4.47;;;;;;;31.90;41.43;100486.25;5003011;28;20046;-54
2023/06/22 09:29:14;;;;;;;5.43;4.30;;;;;;;31.99;40.93;100485.47;5002866;28;20486;-53
2023/06/22 09:31:41;;;;;;;5.70;4.63;;;;;;;32.10;40.56;100480.97;5003765;28;20049;-52
2023/06/22 09:34:08;;;;;;;6.07;3.83;;;;;;;32.24;40.83;100482.44;4999552;28;20583;-51
2023/06/22 09:36:35;;;;;;;8.13;4.65;;;;;;;32.39;40.92;100483.75;5003966;28;20166;-53
2023/06/22 09:39:05;;;;;;;5.30;4.32;;;;;;;32.57;40.67;100488.50;4995768;28;20722;-54
2023/06/22 09:41:35;;;;;;;4.97;4.45;;;;;;;32.69;40.25;100486.56;4998933;28;20116;-50
2023/06/22 09:44:02;;;;;;;4.50;4.05;;;;;;;32.78;40.09;100491.06;4997930;28;20144;-52
2023/06/22 09:46:28;;;;;;;4.70;2.75;;;;;;;32.89;39.96;100486.59;5001336;28;20310;-52
2023/06/22 09:48:55;;;;;;;6.00;4.25;;;;;;;33.07;40.15;100506.38;5002821;28;20132;-49
2023/06/22 09:51:23;;;;;;;8.77;4.97;;;;;;;33.08;38.61;100496.50;5001012;28;20061;-50
2023/06/22 09:53:50;;;;;;;5.88;4.80;;;;;;;32.98;38.87;100491.09;4997402;28;20172;-50
2023/06/22 09:56:17;;;;;;;6.32;5.38;;;;;;;33.03;38.57;100488.03;4997199;28;20042;-48
2023/06/22 09:58:46;;;;;;;5.53;3.55;;;;;;;33.05;38.94;100492.25;4999297;28;20564;-49
2023/06/22 10:01:14;;;;;;;5.40;4.80;;;;;;;33.11;38.51;100496.22;5004078;28;20061;-54
2023/06/22 10:03:41;;;;;;;6.00;4.10;;;;;;;33.23;38.75;100494.25;5008791;28;20132;-50
2023/06/22 10:06:08;;;;;;;4.25;3.85;;;;;;;33.28;38.06;100489.28;5004415;28;20049;-48
2023/06/22 10:08:36;;;;;;;6.55;4.35;;;;;;;33.40;38.71;100494.50;5007819;28;20383;-48
2023/06/22 10:11:04;;;;;;;5.63;4.22;;;;;;;33.47;37.24;100482.19;5007539;28;20064;-51
2023/06/22 10:13:30;;;;;;;5.30;3.60;;;;;;;33.60;37.58;100489.97;5008086;28;20140;-47
2023/06/22 10:15:57;;;;;;;4.25;3.95;;;;;;;33.81;37.36;100492.44;5000952;28;20046;-49
2023/06/22 10:18:24;;;;;;;5.55;4.15;;;;;;;34.02;36.77;100494.09;4997540;28;20046;-50
2023/06/22 10:20:51;;;;;;;5.60;4.47;;;;;;;34.10;37.43;100488.84;5000540;28;20046;-50
2023/06/22 10:23:19;;;;;;;7.07;5.28;;;;;;;34.13;38.10;100487.69;4994377;28;20682;-49
2023/06/22 10:25:46;;;;;;;5.10;4.60;;;;;;;34.06;36.29;100495.47;5003598;28;20046;-49
2023/06/22 10:28:13;;;;;;;7.28;4.32;;;;;;;33.74;37.08;100496.72;4997536;28;20042;-53
2023/06/22 10:30:41;;;;;;;4.55;4.00;;;;;;;33.58;37.65;100492.81;5002558;28;20138;-52
2023/06/22 10:33:09;;;;;;;4.80;4.40;;;;;;;33.42;37.44;100497.88;5001099;28;20469;-52
2023/06/22 10:35:37;;;;;;;6.57;4.18;;;;;;;33.28;36.99;100500.03;5003805;28;20042;-51
2023/06/22 10:38:05;;;;;;;5.47;3.70;;;;;;;33.28;37.60;100496.47;5004343;28;20056;-50
2023/06/22 10:40:32;;;;;;;9.38;6.53;;;;;;;33.20;37.30;100498.03;4999841;28;20049;-51
2023/06/22 10:42:58;;;;;;;6.55;4.55;;;;;;;33.25;38.37;100497.63;5006545;28;20054;-48
2023/06/22 10:45:25;;;;;;;6.93;4.32;;;;;;;33.26;37.16;100491.25;5006139;28;20061;-50
2023/06/22 10:47:52;;;;;;;5.05;4.28;;;;;;;33.07;38.05;100495.63;5001901;28;20764;-54
2023/06/22 10:50:20;;;;;;;5.40;4.22;;;;;;;32.80;37.78;100494.47;5003733;28;20053;-53
2023/06/22 10:52:46;;;;;;;6.65;4.68;;;;;;;32.56;37.97;100492.19;5002412;28;20108;-52
2023/06/22 10:55:13;;;;;;;6.95;4.63;;;;;;;32.28;38.20;100490.09;5002306;28;20096;-53
2023/06/22 10:57:43;;;;;;;5.40;3.95;;;;;;;32.19;38.53;100486.38;5005435;28;20045;-49
2023/06/22 11:00:11;;;;;;;5.05;4.38;;;;;;;32.24;38.33;100485.13;4997528;28;20060;-52
2023/06/22 11:02:38;;;;;;;5.32;4.82;;;;;;;32.37;37.70;100490.25;5005360;28;20076;-55
2023/06/22 11:05:05;;;;;;;8.43;5.10;;;;;;;32.55;37.80;100487.78;5005404;28;20056;-55
2023/06/22 11:07:32;;;;;;;6.03;5.32;;;;;;;32.74;37.51;100495.03;5006022;28;20050;-53
2023/06/22 11:09:59;;;;;;;6.30;4.40;;;;;;;32.78;37.55;100491.06;5007270;28;20057;-55
2023/06/22 11:12:26;;;;;;;5.90;5.10;;;;;;;32.69;37.12;100494.59;5007679;28;20532;-51
2023/06/22 11:14:52;;;;;;;6.13;4.88;;;;;;;32.46;37.08;100497.50;5000357;28;20050;-50
2023/06/22 11:17:19;;;;;;;6.78;3.15;;;;;;;32.20;37.07;100497.94;5006064;28;20401;-50
2023/06/22 11:19:46;;;;;;;5.63;4.57;;;;;;;31.88;37.69;100493.56;5004741;28;20085;-51
2023/06/22 11:22:12;;;;;;;4.55;4.15;;;;;;;31.79;38.29;100493.38;5003017;28;20413;-50
2023/06/22 11:24:39;;;;;;;7.18;5.82;;;;;;;31.85;38.33;100491.13;5002358;28;20050;-58
2023/06/22 11:27:06;;;;;;;4.20;3.65;;;;;;;31.90;38.57;100486.25;5004946;28;20046;-49